This is the latest recevied weather packets stored in our database for station/object JH4GLG-13. If no packets are shown the sender has not sent any weather packets the latest 1 day(s).
| Time | Temp. | Humidity | Pressure | Rain* | Wind** | Luminosity | Snow |
|---|---|---|---|---|---|---|---|
| 1778051498 | 22.78° C | 59% | 1017 hPa | 0 mm | - | - | - |
| 1778047039 | 23.33° C | 57% | 1017.5 hPa | 0 mm | - | - | - |
| 1778045198 | 23.33° C | 57% | 1017.6 hPa | 0 mm | - | - | - |
| 1778044297 | 23.33° C | 55% | 1017.9 hPa | 0 mm | - | - | - |
| 1778043398 | 23.89° C | 56% | 1018.2 hPa | 0 mm | - | - | - |
| 1778042497 | 23.33° C | 58% | 1017.9 hPa | 0 mm | - | - | - |
| 1778041598 | - | - | 1018.3 hPa | 0 mm | - | - | - |
| 1778040696 | 23.89° C | 57% | 1018.7 hPa | 0 mm | - | - | - |
| 1778039798 | 23.89° C | 54% | 1018.7 hPa | 0 mm | - | - | - |
| 1778038895 | 24.44° C | 51% | 1018.8 hPa | 0 mm | - | - | - |
| 1778037997 | 25° C | 50% | 1019.2 hPa | 0 mm | - | - | - |
| 1778037096 | 25° C | 48% | 1019.4 hPa | 0 mm | - | - | - |
| 1778036199 | 25° C | 49% | 1019.4 hPa | 0 mm | - | - | - |
| 1778035298 | 24.44° C | 48% | 1019.8 hPa | 0 mm | - | - | - |
| 1778034397 | - | - | 1019.7 hPa | 0 mm | - | - | - |
| 1778032596 | 23.33° C | 53% | 1020 hPa | 0 mm | - | - | - |
| 1778031695 | 21.67° C | 55% | 1020.3 hPa | 0 mm | - | - | - |
| 1778030796 | 21.67° C | 56% | 1020.5 hPa | 0 mm | - | - | - |
| 1778029895 | 22.78° C | 56% | 1020.6 hPa | 0 mm | - | - | - |
| 1778028996 | 21.67° C | 59% | 1020.7 hPa | 0 mm | - | - | - |
| 1778028095 | 20.56° C | 61% | 1020.7 hPa | 0 mm | - | - | - |
| 1778027196 | 21.11° C | 59% | 1020.8 hPa | 0 mm | - | - | - |
| 1778026295 | 21.67° C | 58% | 1021 hPa | 0 mm | - | - | - |
| 1778025396 | 20° C | 60% | 1020.8 hPa | 0 mm | - | - | - |
| 1778021796 | 18.33° C | 62% | 1020.9 hPa | 0 mm | - | - | - |
* Rain latest hour (hover to see other rain measurements)
** Current wind speed in m/s (hover to see current wind gust speed)